Time;durP1;ratioP1;P1;durP2;ratioP2;P2;SDS_P1;SDS_P2;PMS_P1;PMS_P2;Temp;Humidity;BMP_temperature;BMP_pressure;BME280_temperature;BME280_humidity;BME280_pressure;Samples;Min_cycle;Max_cycle;Signal;HPM_P1;HPM_P2
2022/03/22 00:01:44;;;;;;;33.92;15.80;;;;;;;0.29;49.49;99582.05;1697924;84;21370;-77
2022/03/22 00:04:12;;;;;;;32.05;16.37;;;;;;;0.25;50.50;99572.36;1697865;84;21056;-77
2022/03/22 00:06:39;;;;;;;37.67;17.60;;;;;;;0.22;49.72;99578.75;1696612;84;21009;-78
2022/03/22 00:09:05;;;;;;;33.80;16.90;;;;;;;0.21;49.25;99578.29;1686970;84;21042;-78
2022/03/22 00:11:33;;;;;;;34.18;16.35;;;;;;;0.19;49.21;99579.93;1697439;84;21075;-78
2022/03/22 00:13:59;;;;;;;31.50;15.78;;;;;;;0.19;49.95;99573.41;1697555;84;20984;-78
2022/03/22 00:16:26;;;;;;;31.23;16.07;;;;;;;0.15;50.47;99576.33;1697565;84;21337;-78
2022/03/22 00:18:52;;;;;;;37.23;16.77;;;;;;;0.13;50.60;99576.70;1694810;84;21522;-78
2022/03/22 00:21:19;;;;;;;31.73;16.15;;;;;;;0.12;50.64;99574.89;1697035;84;21065;-80
2022/03/22 00:23:47;;;;;;;33.28;15.60;;;;;;;0.08;49.98;99578.24;1697655;84;21052;-80
2022/03/22 00:26:14;;;;;;;32.42;15.95;;;;;;;0.04;50.93;99572.44;1697880;84;21051;-80
2022/03/22 00:28:41;;;;;;;29.27;14.93;;;;;;;0.05;50.75;99580.72;1696492;84;21416;-80
2022/03/22 00:31:07;;;;;;;32.35;15.53;;;;;;;0.02;51.31;99584.09;1669862;85;21402;-80
2022/03/22 00:33:34;;;;;;;30.23;14.33;;;;;;;0.01;51.21;99586.64;1670088;84;20984;-80
2022/03/22 00:36:00;;;;;;;33.13;14.15;;;;;;;-0.07;51.77;99588.55;1669985;86;21027;-80
2022/03/22 00:38:27;;;;;;;28.23;14.93;;;;;;;-0.10;51.90;99586.21;1648474;86;21440;-80
2022/03/22 00:40:53;;;;;;;30.92;14.80;;;;;;;-0.08;50.84;99585.88;1670162;84;21044;-81
2022/03/22 00:43:20;;;;;;;30.43;14.78;;;;;;;-0.12;51.18;99592.70;1669912;85;21008;-81
2022/03/22 00:45:48;;;;;;;32.20;15.90;;;;;;;-0.15;51.06;99589.95;1669676;85;21420;-81
2022/03/22 00:48:14;;;;;;;29.48;14.83;;;;;;;-0.19;52.33;99585.45;1669800;86;21016;-80
2022/03/22 00:50:46;;;;;;;32.20;14.60;;;;;;;-0.21;51.28;99586.68;1669785;85;21481;-80
2022/03/22 00:53:17;;;;;;;28.30;14.73;;;;;;;-0.23;51.85;99588.35;1681565;84;21435;-80
2022/03/22 00:55:43;;;;;;;26.80;12.80;;;;;;;-0.25;51.23;99591.30;1697479;84;21005;-80
2022/03/22 00:58:10;;;;;;;25.27;13.95;;;;;;;-0.28;51.93;99584.67;1697896;84;21032;-80
2022/03/22 01:00:38;;;;;;;28.50;14.47;;;;;;;-0.27;52.38;99587.34;1697637;84;21032;-81
2022/03/22 01:03:07;;;;;;;24.50;13.08;;;;;;;-0.30;52.68;99581.10;1697720;84;21040;-81
2022/03/22 01:05:35;;;;;;;25.75;13.58;;;;;;;-0.31;51.73;99589.35;1680666;84;21033;-80
2022/03/22 01:08:06;;;;;;;28.42;13.83;;;;;;;-0.28;51.49;99586.84;1669650;85;21049;-80
2022/03/22 01:10:36;;;;;;;24.60;13.55;;;;;;;-0.29;52.02;99577.69;1669847;85;21076;-78
2022/03/22 01:13:04;;;;;;;26.82;13.88;;;;;;;-0.30;51.44;99583.30;1676686;84;21017;-78
2022/03/22 01:15:35;;;;;;;30.10;13.68;;;;;;;-0.30;51.82;99574.59;1697761;84;21005;-78
2022/03/22 01:18:08;;;;;;;30.25;13.83;;;;;;;-0.34;51.76;99577.49;1697782;84;21060;-78
2022/03/22 01:20:38;;;;;;;23.87;13.43;;;;;;;-0.35;51.31;99574.42;1698084;84;21024;-78
2022/03/22 01:23:07;;;;;;;26.00;13.60;;;;;;;-0.40;52.15;99575.52;1690593;84;21076;-78
2022/03/22 01:25:36;;;;;;;27.05;13.25;;;;;;;-0.42;52.14;99578.49;1669726;84;21470;-78
2022/03/22 01:28:07;;;;;;;25.45;12.78;;;;;;;-0.43;52.02;99578.02;1669522;86;21081;-78
2022/03/22 01:30:34;;;;;;;26.15;13.05;;;;;;;-0.50;53.18;99575.11;1669787;86;21446;-78
2022/03/22 01:33:02;;;;;;;24.43;12.85;;;;;;;-0.49;52.38;99569.97;1670372;83;21007;-78
2022/03/22 01:35:28;;;;;;;26.50;12.55;;;;;;;-0.52;53.43;99573.73;1670157;84;21036;-78
2022/03/22 01:37:56;;;;;;;25.92;12.82;;;;;;;-0.53;53.32;99577.17;1669849;85;21056;-77
2022/03/22 01:40:26;;;;;;;27.87;13.70;;;;;;;-0.51;52.41;99570.30;1669836;86;21036;-78
2022/03/22 01:42:53;;;;;;;25.88;12.30;;;;;;;-0.50;52.86;99571.20;1669629;86;21004;-79
2022/03/22 01:45:20;;;;;;;22.17;11.68;;;;;;;-0.53;52.52;99570.67;1670018;85;21064;-79
2022/03/22 01:47:48;;;;;;;22.40;11.63;;;;;;;-0.50;53.26;99563.39;1683937;84;21017;-79
2022/03/22 01:50:19;;;;;;;25.45;12.80;;;;;;;-0.50;53.19;99569.90;1697603;84;21056;-78
2022/03/22 01:52:47;;;;;;;22.10;11.93;;;;;;;-0.52;52.97;99578.95;1697915;84;21016;-78
2022/03/22 01:55:17;;;;;;;26.33;11.78;;;;;;;-0.56;53.64;99570.12;1697769;84;21398;-79
2022/03/22 01:57:44;;;;;;;24.15;12.23;;;;;;;-0.58;53.74;99572.20;1697426;84;21048;-78
2022/03/22 02:00:18;;;;;;;24.92;12.33;;;;;;;-0.59;53.12;99566.09;1696003;84;21013;-78
2022/03/22 02:05:54;;;;;;;22.52;12.63;;;;;;;-0.63;53.48;99573.29;1697907;84;21321;-79
2022/03/22 02:08:30;;;;;;;21.07;11.35;;;;;;;-0.64;52.91;99571.92;1691251;84;21089;-80
2022/03/22 02:11:00;;;;;;;26.23;12.33;;;;;;;-0.72;54.02;99567.70;1669603;85;21037;-80
2022/03/22 02:16:12;;;;;;;20.92;11.00;;;;;;;-0.73;53.22;99572.44;1787739;80;21016;-81
2022/03/22 02:18:40;;;;;;;25.40;11.63;;;;;;;-0.71;52.85;99569.08;1787545;80;21027;-79
2022/03/22 02:21:07;;;;;;;22.40;10.78;;;;;;;-0.69;53.50;99571.34;1787673;80;20983;-78
2022/03/22 02:23:53;;;;;;;23.52;11.68;;;;;;;-0.71;54.29;99567.77;1787693;80;20995;-79
2022/03/22 02:26:22;;;;;;;27.30;12.80;;;;;;;-0.70;53.17;99576.05;1787807;80;20995;-78
2022/03/22 02:28:53;;;;;;;26.48;12.75;;;;;;;-0.70;52.84;99576.05;1787804;79;21055;-78
2022/03/22 02:31:20;;;;;;;24.00;12.65;;;;;;;-0.70;52.82;99573.45;1787597;80;21015;-78
2022/03/22 02:33:47;;;;;;;24.67;12.63;;;;;;;-0.70;52.86;99574.75;1786222;79;21027;-79
2022/03/22 02:36:14;;;;;;;25.55;12.50;;;;;;;-0.72;52.53;99571.20;1756999;82;21462;-78
2022/03/22 02:38:42;;;;;;;24.57;12.58;;;;;;;-0.81;54.50;99566.92;1764747;80;21421;-78
2022/03/22 02:41:21;;;;;;;24.02;12.75;;;;;;;-0.80;53.54;99564.39;1787870;80;21015;-77
2022/03/22 02:43:49;;;;;;;24.07;11.22;;;;;;;-0.79;52.80;99569.16;1787925;80;21051;-77
2022/03/22 02:46:16;;;;;;;23.90;11.57;;;;;;;-0.83;54.25;99569.45;1787770;79;21004;-77
2022/03/22 02:48:44;;;;;;;20.65;11.30;;;;;;;-0.81;54.11;99565.61;1787876;80;20991;-77
2022/03/22 02:51:12;;;;;;;18.70;10.70;;;;;;;-0.82;53.66;99572.95;1787782;80;21055;-77
2022/03/22 02:53:39;;;;;;;22.95;10.90;;;;;;;-0.84;54.39;99571.98;1787661;80;20972;-77
2022/03/22 02:56:06;;;;;;;21.75;11.18;;;;;;;-0.85;54.18;99574.12;1787777;80;20968;-78
2022/03/22 02:58:33;;;;;;;21.00;10.70;;;;;;;-0.85;54.08;99576.33;1787925;80;21414;-78
2022/03/22 03:01:02;;;;;;;23.07;10.55;;;;;;;-0.87;54.35;99566.23;1787588;80;20994;-78
2022/03/22 03:03:28;;;;;;;22.02;10.90;;;;;;;-0.91;54.56;99564.77;1787670;80;21078;-78
2022/03/22 03:05:55;;;;;;;21.55;10.63;;;;;;;-0.96;54.68;99575.86;1787820;79;20984;-78
2022/03/22 03:08:26;;;;;;;19.30;10.85;;;;;;;-0.94;54.75;99566.82;1787862;80;21378;-78
2022/03/22 03:10:49;;;;;;;19.10;9.65;;;;;;;-0.97;54.62;99573.19;1787242;80;21460;-78
2022/03/22 03:13:18;;;;;;;20.20;10.05;;;;;;;-0.95;54.71;99574.16;1787733;80;21051;-78
2022/03/22 03:15:44;;;;;;;31.42;11.30;;;;;;;-0.95;54.52;99578.06;1768414;80;21054;-78
2022/03/22 03:18:13;;;;;;;21.25;11.03;;;;;;;-0.97;54.48;99575.79;1802125;80;21027;-78
2022/03/22 03:20:40;;;;;;;22.98;10.90;;;;;;;-0.98;54.61;99576.22;1801785;80;21044;-78
2022/03/22 03:23:06;;;;;;;18.00;9.63;;;;;;;-0.99;54.87;99573.11;1801990;80;21031;-77
2022/03/22 03:25:35;;;;;;;22.50;10.23;;;;;;;-1.03;55.21;99575.14;1801921;80;21027;-78
2022/03/22 03:28:01;;;;;;;20.17;10.15;;;;;;;-0.99;55.17;99577.02;1801646;80;21010;-77
2022/03/22 03:30:29;;;;;;;22.07;9.90;;;;;;;-0.97;54.69;99574.09;1801957;80;21524;-77
2022/03/22 03:32:56;;;;;;;29.37;9.90;;;;;;;-0.98;54.89;99575.32;1800957;78;20982;-78
2022/03/22 03:35:22;;;;;;;23.22;10.43;;;;;;;-0.97;54.78;99573.19;1801083;80;21041;-78
2022/03/22 03:37:50;;;;;;;22.75;10.65;;;;;;;-0.94;54.56;99578.53;1802084;80;20955;-78
2022/03/22 03:40:17;;;;;;;20.40;10.58;;;;;;;-0.95;54.74;99575.46;1802007;80;21032;-78
2022/03/22 03:42:44;;;;;;;18.40;10.70;;;;;;;-0.93;54.59;99571.20;1801975;80;21029;-78
2022/03/22 03:47:58;;;;;;;23.55;10.50;;;;;;;-1.02;55.16;99569.10;1802122;80;21385;-78
2022/03/22 03:50:26;;;;;;;22.65;10.72;;;;;;;-1.05;55.26;99571.56;1802017;80;21396;-77
2022/03/22 03:52:53;;;;;;;21.35;10.95;;;;;;;-1.07;54.97;99563.69;1801949;80;21010;-79
2022/03/22 03:55:20;;;;;;;21.02;11.18;;;;;;;-1.04;55.00;99572.47;1801945;80;21023;-78
2022/03/22 03:57:49;;;;;;;21.12;10.38;;;;;;;-1.10;55.54;99570.48;1802009;80;20995;-78
2022/03/22 04:00:16;;;;;;;21.62;11.05;;;;;;;-1.10;55.46;99572.69;1802114;80;20999;-78
2022/03/22 04:02:43;;;;;;;21.25;11.35;;;;;;;-1.05;54.81;99564.19;1801926;80;21090;-78
2022/03/22 04:05:10;;;;;;;21.45;10.85;;;;;;;-1.07;54.25;99571.48;1801935;80;20971;-78
2022/03/22 04:07:36;;;;;;;23.18;11.73;;;;;;;-1.04;54.77;99566.83;1802045;80;21076;-78
2022/03/22 04:10:04;;;;;;;20.30;10.60;;;;;;;-1.03;55.15;99559.52;1801805;80;21003;-78
2022/03/22 04:12:31;;;;;;;23.20;11.55;;;;;;;-1.03;54.47;99569.03;1802005;80;21027;-78
2022/03/22 04:14:57;;;;;;;22.02;11.43;;;;;;;-1.02;54.55;99569.50;1798259;79;21420;-78
2022/03/22 04:17:24;;;;;;;21.93;10.80;;;;;;;-1.03;54.29;99569.03;1787633;80;20991;-78
2022/03/22 04:19:51;;;;;;;23.35;11.63;;;;;;;-1.07;55.40;99581.03;1787691;80;21446;-77
2022/03/22 04:22:18;;;;;;;22.45;10.38;;;;;;;-1.07;54.72;99578.00;1757460;80;21460;-78
2022/03/22 04:24:45;;;;;;;23.38;11.03;;;;;;;-1.09;55.58;99578.75;1787622;80;21020;-78
2022/03/22 04:32:41;;;;;;;21.85;11.50;;;;;;;-1.10;54.66;99584.79;1785673;79;21006;-77
2022/03/22 04:35:18;;;;;;;21.57;11.80;;;;;;;-1.09;54.23;99580.95;1756827;82;21059;-77
2022/03/22 04:37:50;;;;;;;24.45;12.47;;;;;;;-1.11;54.39;99579.11;1756625;82;20984;-77
2022/03/22 04:40:18;;;;;;;25.40;13.15;;;;;;;-1.13;54.22;99580.77;1760231;80;21005;-77
2022/03/22 04:42:52;;;;;;;27.73;12.75;;;;;;;-1.16;54.52;99574.99;1787756;80;20967;-77
2022/03/22 04:45:20;;;;;;;22.65;12.80;;;;;;;-1.18;54.11;99577.05;1787760;79;21028;-77
2022/03/22 04:47:46;;;;;;;24.05;11.85;;;;;;;-1.21;54.55;99575.21;1787725;80;20991;-77
2022/03/22 04:50:16;;;;;;;22.45;11.70;;;;;;;-1.27;54.59;99577.16;1787658;80;21015;-77
2022/03/22 04:58:14;;;;;;;21.00;11.28;;;;;;;-1.27;55.26;99582.75;1787756;80;20975;-78
2022/03/22 05:00:40;;;;;;;22.90;11.00;;;;;;;-1.26;56.07;99573.72;1787920;80;20963;-80
2022/03/22 05:03:08;;;;;;;20.23;10.43;;;;;;;-1.23;55.13;99576.87;1787810;80;21370;-78
2022/03/22 05:08:20;;;;;;;23.40;11.48;;;;;;;-1.10;54.94;99580.89;1787809;80;20924;-79
2022/03/22 05:10:47;;;;;;;23.85;11.68;;;;;;;-1.00;55.18;99576.55;1787599;80;21027;-78
2022/03/22 05:13:13;;;;;;;18.52;11.15;;;;;;;-0.84;54.87;99573.28;1787546;80;20987;-78
2022/03/22 05:15:40;;;;;;;21.68;11.78;;;;;;;-0.81;55.12;99570.42;1787628;78;20964;-78
2022/03/22 05:18:06;;;;;;;23.02;11.40;;;;;;;-0.78;54.41;99573.97;1786788;80;20972;-78
2022/03/22 05:20:33;;;;;;;29.85;11.05;;;;;;;-0.72;54.45;99577.72;1787562;80;20968;-77
2022/03/22 05:22:59;;;;;;;27.75;11.70;;;;;;;-0.70;54.63;99573.45;1787699;80;21000;-77
2022/03/22 05:25:31;;;;;;;22.48;12.10;;;;;;;-0.64;54.73;99574.52;1787912;80;20957;-78
2022/03/22 05:28:00;;;;;;;22.50;10.85;;;;;;;-0.60;54.67;99579.04;1787506;80;21019;-78
2022/03/22 05:30:27;;;;;;;27.82;11.53;;;;;;;-0.58;54.87;99573.50;1787726;80;21005;-77
2022/03/22 05:32:53;;;;;;;20.25;11.80;;;;;;;-0.53;54.93;99578.48;1787805;80;21070;-77
2022/03/22 05:35:20;;;;;;;27.30;11.55;;;;;;;-0.46;54.25;99576.59;1786186;79;20906;-77
2022/03/22 05:37:47;;;;;;;23.20;11.73;;;;;;;-0.41;53.93;99575.48;1786083;80;20985;-77
2022/03/22 05:40:16;;;;;;;22.32;11.10;;;;;;;-0.33;53.77;99569.27;1786507;80;21007;-77
2022/03/22 05:42:42;;;;;;;27.37;11.85;;;;;;;-0.29;53.89;99575.95;1785680;80;21021;-78
2022/03/22 05:45:11;;;;;;;22.70;11.25;;;;;;;-0.23;53.84;99577.03;1784451;80;21068;-78
2022/03/22 05:47:40;;;;;;;25.15;12.00;;;;;;;-0.19;54.18;99573.32;1781557;80;21468;-78
2022/03/22 05:50:09;;;;;;;23.67;12.18;;;;;;;-0.15;53.87;99575.22;1782029;80;21378;-77
2022/03/22 05:52:45;;;;;;;28.80;13.20;;;;;;;-0.09;53.68;99565.42;1784997;80;20993;-76
2022/03/22 05:55:12;;;;;;;24.02;11.65;;;;;;;-0.02;53.37;99570.06;1787308;80;20940;-76
2022/03/22 05:57:39;;;;;;;23.85;12.10;;;;;;;0.05;53.17;99565.08;1784917;80;20979;-78
2022/03/22 06:00:09;;;;;;;26.87;12.50;;;;;;;0.12;53.01;99567.97;1784886;80;20991;-79
2022/03/22 06:02:40;;;;;;;35.60;13.20;;;;;;;0.20;52.95;99575.22;1788361;80;21016;-78
2022/03/22 06:05:11;;;;;;;36.60;13.13;;;;;;;0.27;52.65;99566.78;1788080;80;20956;-79
2022/03/22 06:07:40;;;;;;;22.75;11.60;;;;;;;0.35;52.77;99557.53;1785503;80;21011;-80
2022/03/22 06:10:09;;;;;;;25.75;11.35;;;;;;;0.42;52.61;99566.87;1783549;80;21410;-79
2022/03/22 06:12:40;;;;;;;27.10;12.00;;;;;;;0.51;52.42;99561.56;1785133;80;20951;-79
2022/03/22 06:15:20;;;;;;;24.60;12.70;;;;;;;0.64;52.35;99573.76;1788135;80;20964;-79
2022/03/22 06:17:56;;;;;;;23.60;12.30;;;;;;;0.71;52.20;99578.78;1780157;80;20983;-79
2022/03/22 06:20:26;;;;;;;24.57;12.55;;;;;;;0.84;52.04;99581.41;1791409;80;21038;-79
2022/03/22 06:22:53;;;;;;;26.93;13.55;;;;;;;0.95;51.85;99577.88;1790967;80;21540;-79
2022/03/22 06:25:20;;;;;;;26.80;11.88;;;;;;;1.04;51.60;99576.90;1762484;80;20995;-79
2022/03/22 06:27:50;;;;;;;25.92;12.30;;;;;;;1.14;51.23;99575.07;1791146;79;20993;-79
2022/03/22 06:30:18;;;;;;;21.77;12.10;;;;;;;1.24;51.14;99577.55;1790985;79;20999;-79
2022/03/22 06:32:58;;;;;;;23.45;12.13;;;;;;;1.34;51.02;99567.02;1790416;79;21040;-79
2022/03/22 06:35:32;;;;;;;27.22;13.25;;;;;;;1.47;50.72;99571.32;1790814;80;21036;-79
2022/03/22 06:38:01;;;;;;;38.08;18.10;;;;;;;1.60;50.53;99564.35;1759891;80;20972;-79
2022/03/22 06:40:29;;;;;;;43.48;21.07;;;;;;;1.72;50.44;99562.55;1760101;81;20999;-79
2022/03/22 06:42:57;;;;;;;27.15;12.73;;;;;;;1.83;50.29;99564.20;1760097;81;21004;-79
2022/03/22 06:45:25;;;;;;;25.62;12.78;;;;;;;1.96;49.99;99565.03;1785826;80;20980;-80
2022/03/22 06:47:52;;;;;;;24.12;12.55;;;;;;;2.07;49.75;99567.08;1791587;79;21016;-80
2022/03/22 06:50:20;;;;;;;25.15;13.25;;;;;;;2.22;49.61;99564.05;1791079;79;20953;-80
2022/03/22 06:52:47;;;;;;;29.92;13.85;;;;;;;2.32;49.60;99555.62;1791048;80;20964;-80
2022/03/22 06:55:22;;;;;;;25.92;14.10;;;;;;;2.42;49.60;99554.17;1791069;80;20988;-85
2022/03/22 06:57:47;;;;;;;24.23;13.88;;;;;;;2.54;49.61;99557.56;1788124;80;21015;-83
2022/03/22 07:00:15;;;;;;;26.10;13.48;;;;;;;2.67;49.54;99560.51;1788304;80;21007;-82
2022/03/22 07:02:42;;;;;;;35.60;16.17;;;;;;;2.77;49.44;99565.15;1790710;80;21381;-81
2022/03/22 07:05:10;;;;;;;27.98;15.28;;;;;;;2.88;49.41;99555.88;1790848;80;21051;-82
2022/03/22 07:07:37;;;;;;;27.98;13.78;;;;;;;3.02;49.27;99560.56;1791151;80;20968;-82
2022/03/22 07:10:07;;;;;;;27.52;14.25;;;;;;;3.14;49.21;99565.23;1790727;80;21306;-82
2022/03/22 07:12:33;;;;;;;27.30;14.38;;;;;;;3.25;49.16;99553.73;1778766;80;20962;-81
2022/03/22 07:15:03;;;;;;;34.63;14.20;;;;;;;3.39;48.95;99561.52;1764389;80;21390;-82
2022/03/22 07:17:28;;;;;;;24.98;13.18;;;;;;;3.54;48.65;99559.68;1779864;80;21004;-82
2022/03/22 07:19:55;;;;;;;27.87;14.47;;;;;;;3.69;48.36;99558.27;1785103;80;20988;-82
2022/03/22 07:22:21;;;;;;;25.82;12.82;;;;;;;3.84;48.42;99555.14;1785337;80;21043;-81
2022/03/22 07:24:48;;;;;;;25.02;12.95;;;;;;;3.95;48.23;99554.08;1785350;80;20995;-83
2022/03/22 07:27:14;;;;;;;26.48;13.18;;;;;;;4.06;47.85;99556.50;1785043;80;21473;-82
2022/03/22 07:29:41;;;;;;;23.05;12.53;;;;;;;4.18;47.43;99554.58;1785040;80;21007;-82
2022/03/22 07:32:08;;;;;;;28.40;14.23;;;;;;;4.31;47.58;99551.78;1773486;80;20980;-82
2022/03/22 07:34:34;;;;;;;27.77;14.85;;;;;;;4.49;46.75;99549.09;1778720;80;21022;-81
2022/03/22 07:37:00;;;;;;;23.65;13.22;;;;;;;4.68;46.38;99544.18;1785259;80;21043;-82
2022/03/22 07:39:29;;;;;;;28.17;12.93;;;;;;;4.82;46.63;99541.39;1785278;80;21053;-79
2022/03/22 07:41:55;;;;;;;26.12;13.40;;;;;;;4.94;46.45;99538.10;1785154;80;21430;-82
2022/03/22 07:44:22;;;;;;;24.02;11.68;;;;;;;5.05;46.21;99533.47;1780726;80;20956;-82
2022/03/22 07:46:49;;;;;;;24.37;12.68;;;;;;;5.20;45.43;99531.55;1776546;80;21426;-81
2022/03/22 07:54:46;;;;;;;30.52;13.65;;;;;;;5.70;44.73;99524.45;1781902;80;21413;-82
2022/03/22 07:57:12;;;;;;;28.92;12.10;;;;;;;5.86;45.60;99530.38;1779766;80;20956;-79
2022/03/22 07:59:39;;;;;;;28.17;12.40;;;;;;;6.05;45.00;99514.45;1778698;80;20963;-80
2022/03/22 08:02:06;;;;;;;27.70;12.43;;;;;;;6.31;45.39;99515.67;1782740;80;20963;-79
2022/03/22 08:04:32;;;;;;;26.80;12.23;;;;;;;6.51;44.44;99518.52;1780273;80;21486;-81
2022/03/22 08:06:59;;;;;;;27.20;12.10;;;;;;;6.69;43.38;99509.93;1772364;80;21116;-81
2022/03/22 08:09:27;;;;;;;27.05;11.43;;;;;;;6.86;42.72;99511.88;1769529;81;21511;-83
2022/03/22 08:12:17;;;;;;;24.98;12.85;;;;;;;6.98;43.10;99505.84;1770555;80;21026;-82
2022/03/22 08:14:44;;;;;;;25.17;11.10;;;;;;;7.06;43.00;99505.91;1786474;79;20999;-84
2022/03/22 08:17:12;;;;;;;22.45;11.53;;;;;;;7.13;42.80;99503.77;1776064;79;21040;-82
2022/03/22 08:19:39;;;;;;;25.02;11.73;;;;;;;7.22;42.25;99494.62;1782635;80;21044;-81
2022/03/22 08:22:05;;;;;;;24.10;11.63;;;;;;;7.35;42.62;99500.01;1771670;80;21007;-82
2022/03/22 08:24:32;;;;;;;22.70;10.80;;;;;;;7.50;42.14;99496.16;1768966;80;20980;-82
2022/03/22 08:26:59;;;;;;;22.02;11.20;;;;;;;7.63;41.27;99491.84;1782886;80;20984;-83
2022/03/22 08:29:25;;;;;;;58.58;30.77;;;;;;;7.78;40.97;99484.44;1781187;80;20965;-84
2022/03/22 08:31:52;;;;;;;23.87;13.83;;;;;;;7.90;41.92;99486.27;1782374;80;20989;-82
2022/03/22 08:34:19;;;;;;;21.97;11.50;;;;;;;8.00;40.80;99485.90;1777443;80;21026;-84
2022/03/22 08:36:45;;;;;;;19.27;9.98;;;;;;;8.10;41.11;99481.98;1771780;80;20981;-82
2022/03/22 08:39:12;;;;;;;17.45;10.00;;;;;;;8.19;39.80;99481.57;1777719;80;20987;-81
2022/03/22 08:41:39;;;;;;;19.62;10.40;;;;;;;8.27;40.05;99478.95;1766814;80;21035;-83
2022/03/22 08:44:06;;;;;;;22.67;10.88;;;;;;;8.39;39.12;99477.26;1777277;80;21413;-81
2022/03/22 08:46:32;;;;;;;21.75;10.05;;;;;;;8.44;39.73;99467.59;1782138;80;21016;-83
2022/03/22 08:48:59;;;;;;;23.05;10.43;;;;;;;8.53;40.61;99474.25;1756295;80;21357;-81
2022/03/22 08:51:26;;;;;;;16.02;9.80;;;;;;;8.65;40.70;99469.44;1782598;80;21385;-85
2022/03/22 08:53:54;;;;;;;17.82;10.40;;;;;;;8.73;39.84;99468.55;1782364;80;21028;-82
2022/03/22 08:56:24;;;;;;;17.73;10.03;;;;;;;8.82;39.27;99457.58;1782570;80;20957;-81
2022/03/22 08:58:54;;;;;;;17.98;10.53;;;;;;;9.01;37.99;99448.77;1782354;80;21410;-82
2022/03/22 09:01:24;;;;;;;15.20;9.33;;;;;;;9.06;38.18;99455.80;1781458;80;21004;-82
2022/03/22 09:06:07;;;;;;;17.75;10.15;;;;;;;9.19;37.80;99443.48;1775366;80;21011;-83
2022/03/22 09:06:19;;;;;;;18.80;10.08;;;;;;;9.31;37.55;99449.20;1754893;82;20999;-83
2022/03/22 09:08:45;;;;;;;19.62;10.13;;;;;;;9.36;38.46;99438.60;1777115;80;21480;-83
2022/03/22 09:11:13;;;;;;;18.90;10.23;;;;;;;9.48;37.31;99433.73;1782545;80;21005;-81
2022/03/22 09:13:40;;;;;;;21.27;10.03;;;;;;;9.59;37.26;99434.58;1779655;80;21043;-83
2022/03/22 09:16:14;;;;;;;19.00;10.72;;;;;;;9.70;36.91;99429.27;1773169;80;20995;-81
2022/03/22 09:18:37;;;;;;;20.50;10.53;;;;;;;9.75;37.34;99422.63;1780727;80;21583;-79
2022/03/22 09:21:04;;;;;;;19.02;9.35;;;;;;;9.87;37.13;99413.76;1776396;80;20987;-80
2022/03/22 09:23:31;;;;;;;19.15;10.08;;;;;;;10.06;37.09;99415.02;1774969;80;20976;-80
2022/03/22 09:25:58;;;;;;;18.77;9.90;;;;;;;10.10;37.30;99408.39;1769008;80;21008;-84
2022/03/22 09:28:24;;;;;;;21.90;10.10;;;;;;;10.15;36.82;99403.05;1779792;80;20960;-79
2022/03/22 09:30:50;;;;;;;19.37;10.25;;;;;;;10.27;36.25;99402.11;1782275;80;21489;-85
2022/03/22 09:33:17;;;;;;;17.27;10.00;;;;;;;10.40;35.55;99397.18;1781808;80;21043;-84
2022/03/22 09:35:44;;;;;;;18.57;10.15;;;;;;;10.55;36.76;99398.00;1775127;80;20972;-82
2022/03/22 09:38:10;;;;;;;20.15;10.05;;;;;;;10.64;36.09;99387.34;1777642;80;20960;-82
2022/03/22 09:40:37;;;;;;;13.85;8.38;;;;;;;10.73;36.02;99390.36;1777251;79;20976;-83
2022/03/22 09:43:03;;;;;;;14.40;8.15;;;;;;;10.82;35.90;99378.78;1727211;82;21381;-82
2022/03/22 09:45:33;;;;;;;14.55;8.18;;;;;;;10.95;34.62;99380.88;1713955;83;21034;-83
2022/03/22 09:48:00;;;;;;;15.25;8.50;;;;;;;11.07;35.00;99371.94;1725868;83;20972;-83
2022/03/22 09:53:17;;;;;;;13.83;8.90;;;;;;;11.39;34.37;99374.73;1720561;83;21088;-81
2022/03/22 09:55:44;;;;;;;14.60;8.20;;;;;;;11.48;34.76;99364.45;1720324;83;20980;-81
2022/03/22 09:58:12;;;;;;;15.48;8.60;;;;;;;11.59;33.23;99366.52;1692267;83;21031;-81
2022/03/22 10:00:38;;;;;;;13.53;8.23;;;;;;;11.69;33.60;99367.31;1711319;82;21075;-81
2022/03/22 10:03:07;;;;;;;13.00;7.95;;;;;;;11.77;32.93;99357.92;1681788;83;21060;-81
2022/03/22 10:05:34;;;;;;;14.30;8.88;;;;;;;11.88;33.41;99353.34;1772309;80;21705;-81
2022/03/22 10:08:07;;;;;;;15.43;8.48;;;;;;;11.99;33.71;99354.53;1774849;80;21406;-80
2022/03/22 10:10:35;;;;;;;14.90;8.58;;;;;;;12.45;32.35;99340.17;1775109;80;21998;-80
2022/03/22 10:13:04;;;;;;;12.10;7.80;;;;;;;12.45;32.35;99340.17;1780563;80;20952;-82
2022/03/22 10:15:37;;;;;;;15.00;7.95;;;;;;;12.60;32.58;99339.06;1780205;80;21078;-82
2022/03/22 10:18:08;;;;;;;12.80;7.80;;;;;;;12.71;30.73;99340.19;1777802;81;21091;-81
2022/03/22 10:20:41;;;;;;;15.50;8.00;;;;;;;12.84;31.70;99338.67;1780446;80;21377;-82
2022/03/22 10:23:12;;;;;;;12.40;7.80;;;;;;;12.97;31.66;99327.35;1784627;80;21615;-81
2022/03/22 10:25:43;;;;;;;15.43;8.53;;;;;;;13.12;30.20;99327.55;1776076;80;20976;-84
2022/03/22 10:28:10;;;;;;;16.15;8.25;;;;;;;13.17;29.55;99322.53;1752588;82;21008;-81
2022/03/22 10:30:42;;;;;;;14.60;7.87;;;;;;;13.19;30.59;99322.07;1752545;82;21020;-82
2022/03/22 10:33:10;;;;;;;12.75;8.00;;;;;;;13.32;30.25;99313.83;1778385;80;21511;-81
2022/03/22 10:35:37;;;;;;;13.05;8.53;;;;;;;13.52;28.52;99312.59;1779626;80;20991;-81
2022/03/22 10:38:08;;;;;;;14.33;7.75;;;;;;;13.50;28.34;99306.43;1774058;80;21002;-81
2022/03/22 10:40:44;;;;;;;11.97;8.00;;;;;;;13.57;29.08;99307.60;1769804;81;21501;-82
2022/03/22 10:43:13;;;;;;;12.10;8.35;;;;;;;13.65;28.05;99302.11;1754223;82;21014;-81
2022/03/22 10:45:49;;;;;;;13.80;7.75;;;;;;;13.88;27.83;99304.74;1784938;80;20992;-81
2022/03/22 10:48:30;;;;;;;11.25;7.10;;;;;;;14.54;25.96;99291.22;1780785;80;20956;-84
2022/03/22 10:50:58;;;;;;;10.32;7.12;;;;;;;15.83;25.15;99293.94;1776887;80;21058;-86
2022/03/22 10:53:25;;;;;;;12.98;7.70;;;;;;;17.24;25.30;99290.77;1782412;80;20982;-85
2022/03/22 10:55:53;;;;;;;11.33;7.72;;;;;;;18.24;21.62;99274.95;1784731;80;20997;-85
2022/03/22 10:58:29;;;;;;;10.15;7.85;;;;;;;19.26;21.73;99272.45;1778896;80;21301;-86
2022/03/22 11:00:59;;;;;;;11.97;7.08;;;;;;;20.15;22.15;99256.29;1776536;79;21555;-83
2022/03/22 11:03:34;;;;;;;10.50;7.20;;;;;;;21.41;20.08;99251.24;1779796;79;20966;-82
2022/03/22 11:06:04;;;;;;;11.93;5.95;;;;;;;22.35;19.55;99255.06;1784594;79;21371;-84
2022/03/22 11:08:32;;;;;;;7.70;5.40;;;;;;;23.63;18.08;99251.97;1774441;80;20957;-86
2022/03/22 11:10:59;;;;;;;11.33;6.60;;;;;;;23.63;18.08;99251.97;1783189;80;21040;-85
2022/03/22 11:13:26;;;;;;;9.35;6.40;;;;;;;23.99;16.02;99239.72;1761341;80;20944;-82
2022/03/22 11:15:55;;;;;;;8.53;6.25;;;;;;;24.76;16.99;99235.11;1769928;81;20988;-81
2022/03/22 11:18:23;;;;;;;7.17;6.20;;;;;;;24.96;15.48;99227.94;1776507;80;21087;-81
2022/03/22 11:20:59;;;;;;;8.43;6.03;;;;;;;25.62;16.71;99224.25;1782255;80;21051;-83
2022/03/22 11:23:29;;;;;;;8.33;6.00;;;;;;;25.55;13.91;99217.91;1782306;80;20987;-83
2022/03/22 11:26:12;;;;;;;8.88;6.35;;;;;;;25.71;13.59;99211.36;1775032;80;21390;-83
2022/03/22 11:28:41;;;;;;;8.73;6.45;;;;;;;26.38;15.15;99220.52;1781638;80;21070;-85
2022/03/22 11:31:09;;;;;;;10.15;6.42;;;;;;;26.84;14.58;99212.91;1775446;80;21054;-84
2022/03/22 11:36:28;;;;;;;8.55;5.95;;;;;;;27.24;13.44;99200.73;1767346;80;20958;-83
2022/03/22 11:38:58;;;;;;;6.80;6.10;;;;;;;27.72;13.83;99196.53;1776217;80;20961;-84
2022/03/22 11:44:39;;;;;;;8.78;5.80;;;;;;;28.11;14.67;99187.92;1778362;80;21032;-85
2022/03/22 11:47:14;;;;;;;6.62;4.85;;;;;;;28.06;12.96;99179.63;1777478;80;20953;-82
2022/03/22 11:50:04;;;;;;;6.25;4.53;;;;;;;28.68;13.31;99174.04;1780372;80;21000;-80
2022/03/22 11:52:44;;;;;;;10.48;4.97;;;;;;;28.72;11.75;99172.30;1778485;80;21615;-77
2022/03/22 11:55:18;;;;;;;8.85;5.10;;;;;;;28.69;11.61;99180.73;1780722;80;21500;-79
2022/03/22 11:57:53;;;;;;;9.48;5.12;;;;;;;28.72;11.11;99177.75;1750805;82;21111;-79
2022/03/22 12:00:51;;;;;;;7.80;4.75;;;;;;;28.74;11.87;99172.17;1749360;82;21055;-79
2022/03/22 12:03:19;;;;;;;9.58;5.60;;;;;;;28.69;10.63;99158.06;1750594;82;20973;-79
2022/03/22 12:05:48;;;;;;;4.53;3.98;;;;;;;29.32;12.13;99157.14;1774562;80;20988;-83